sensor_id;sensor_type;location;lat;lon;timestamp;temperature;humidity
44982;DHT22;30716;41.740;-70.400;2023-05-28T00:01:16;24.30;44.40
44982;DHT22;30716;41.740;-70.400;2023-05-28T00:03:43;24.20;44.50
44982;DHT22;30716;41.740;-70.400;2023-05-28T00:06:10;24.20;44.50
44982;DHT22;30716;41.740;-70.400;2023-05-28T00:08:37;24.20;44.70
44982;DHT22;30716;41.740;-70.400;2023-05-28T00:11:04;24.20;44.70
44982;DHT22;30716;41.740;-70.400;2023-05-28T00:13:30;24.20;44.80
44982;DHT22;30716;41.740;-70.400;2023-05-28T00:15:57;24.20;44.90
44982;DHT22;30716;41.740;-70.400;2023-05-28T00:18:24;24.10;44.90
44982;DHT22;30716;41.740;-70.400;2023-05-28T00:20:50;24.20;45.10
44982;DHT22;30716;41.740;-70.400;2023-05-28T00:23:17;24.20;45.00
44982;DHT22;30716;41.740;-70.400;2023-05-28T00:25:43;24.20;45.00
44982;DHT22;30716;41.740;-70.400;2023-05-28T00:28:09;24.20;45.10
44982;DHT22;30716;41.740;-70.400;2023-05-28T00:30:35;24.20;44.90
44982;DHT22;30716;41.740;-70.400;2023-05-28T00:33:02;24.20;44.90
44982;DHT22;30716;41.740;-70.400;2023-05-28T00:35:28;24.30;44.90
44982;DHT22;30716;41.740;-70.400;2023-05-28T00:37:55;24.20;44.90
44982;DHT22;30716;41.740;-70.400;2023-05-28T00:40:23;24.20;45.00
44982;DHT22;30716;41.740;-70.400;2023-05-28T00:42:49;24.30;44.90
44982;DHT22;30716;41.740;-70.400;2023-05-28T00:45:17;24.30;44.80
44982;DHT22;30716;41.740;-70.400;2023-05-28T00:47:43;24.30;44.80
44982;DHT22;30716;41.740;-70.400;2023-05-28T00:50:11;24.30;44.80
44982;DHT22;30716;41.740;-70.400;2023-05-28T00:52:44;24.30;44.80
44982;DHT22;30716;41.740;-70.400;2023-05-28T00:55:15;24.40;44.80
44982;DHT22;30716;41.740;-70.400;2023-05-28T00:57:43;24.40;44.80
44982;DHT22;30716;41.740;-70.400;2023-05-28T01:00:10;24.40;44.90
44982;DHT22;30716;41.740;-70.400;2023-05-28T01:02:39;24.40;44.80
44982;DHT22;30716;41.740;-70.400;2023-05-28T01:05:05;24.40;44.80
44982;DHT22;30716;41.740;-70.400;2023-05-28T01:07:32;24.40;44.90
44982;DHT22;30716;41.740;-70.400;2023-05-28T01:09:59;24.40;44.90
44982;DHT22;30716;41.740;-70.400;2023-05-28T01:12:31;24.40;45.60
44982;DHT22;30716;41.740;-70.400;2023-05-28T01:15:00;24.40;44.90
44982;DHT22;30716;41.740;-70.400;2023-05-28T01:17:28;24.40;44.90
44982;DHT22;30716;41.740;-70.400;2023-05-28T01:19:55;24.40;44.90
44982;DHT22;30716;41.740;-70.400;2023-05-28T01:22:25;24.40;45.00
44982;DHT22;30716;41.740;-70.400;2023-05-28T01:24:54;24.40;44.90
44982;DHT22;30716;41.740;-70.400;2023-05-28T01:27:21;24.40;44.90
44982;DHT22;30716;41.740;-70.400;2023-05-28T01:29:47;24.40;45.00
44982;DHT22;30716;41.740;-70.400;2023-05-28T01:32:14;24.40;45.10
44982;DHT22;30716;41.740;-70.400;2023-05-28T01:34:40;24.40;45.00
44982;DHT22;30716;41.740;-70.400;2023-05-28T01:37:08;24.40;45.00
44982;DHT22;30716;41.740;-70.400;2023-05-28T01:39:44;24.40;45.00
44982;DHT22;30716;41.740;-70.400;2023-05-28T01:42:12;24.40;45.00
44982;DHT22;30716;41.740;-70.400;2023-05-28T01:44:39;24.40;45.10
44982;DHT22;30716;41.740;-70.400;2023-05-28T01:47:07;24.40;45.00
44982;DHT22;30716;41.740;-70.400;2023-05-28T01:49:36;24.40;45.00
44982;DHT22;30716;41.740;-70.400;2023-05-28T01:52:05;24.40;45.20
44982;DHT22;30716;41.740;-70.400;2023-05-28T01:54:33;24.40;44.90
44982;DHT22;30716;41.740;-70.400;2023-05-28T01:57:00;24.40;45.10
44982;DHT22;30716;41.740;-70.400;2023-05-28T01:59:29;24.40;45.10
44982;DHT22;30716;41.740;-70.400;2023-05-28T02:01:55;24.40;45.10
44982;DHT22;30716;41.740;-70.400;2023-05-28T02:04:22;24.40;45.10
44982;DHT22;30716;41.740;-70.400;2023-05-28T02:06:48;24.40;45.10
44982;DHT22;30716;41.740;-70.400;2023-05-28T02:09:14;24.40;45.10
44982;DHT22;30716;41.740;-70.400;2023-05-28T02:11:40;24.40;45.20
44982;DHT22;30716;41.740;-70.400;2023-05-28T02:14:07;24.40;45.50
44982;DHT22;30716;41.740;-70.400;2023-05-28T02:16:33;24.40;45.20
44982;DHT22;30716;41.740;-70.400;2023-05-28T02:19:01;24.40;45.40
44982;DHT22;30716;41.740;-70.400;2023-05-28T02:21:29;24.40;45.30
44982;DHT22;30716;41.740;-70.400;2023-05-28T02:23:55;24.40;45.30
44982;DHT22;30716;41.740;-70.400;2023-05-28T02:26:21;24.40;45.50
44982;DHT22;30716;41.740;-70.400;2023-05-28T02:28:49;24.40;45.40
44982;DHT22;30716;41.740;-70.400;2023-05-28T02:31:16;24.40;45.50
44982;DHT22;30716;41.740;-70.400;2023-05-28T02:33:42;24.40;45.60
44982;DHT22;30716;41.740;-70.400;2023-05-28T02:36:09;24.40;45.50
44982;DHT22;30716;41.740;-70.400;2023-05-28T02:38:39;24.40;45.70
44982;DHT22;30716;41.740;-70.400;2023-05-28T02:41:05;24.40;45.70
44982;DHT22;30716;41.740;-70.400;2023-05-28T02:43:32;24.40;45.60
44982;DHT22;30716;41.740;-70.400;2023-05-28T02:45:58;24.40;45.80
44982;DHT22;30716;41.740;-70.400;2023-05-28T02:48:25;24.40;45.80
44982;DHT22;30716;41.740;-70.400;2023-05-28T02:50:52;24.40;45.70
44982;DHT22;30716;41.740;-70.400;2023-05-28T02:53:21;24.40;45.90
44982;DHT22;30716;41.740;-70.400;2023-05-28T02:55:48;24.40;45.70
44982;DHT22;30716;41.740;-70.400;2023-05-28T02:58:15;24.40;45.80
44982;DHT22;30716;41.740;-70.400;2023-05-28T03:00:42;24.40;45.70
44982;DHT22;30716;41.740;-70.400;2023-05-28T03:03:08;24.40;45.90
44982;DHT22;30716;41.740;-70.400;2023-05-28T03:05:35;24.40;45.80
44982;DHT22;30716;41.740;-70.400;2023-05-28T03:08:01;24.40;45.70
44982;DHT22;30716;41.740;-70.400;2023-05-28T03:10:27;24.40;45.80
44982;DHT22;30716;41.740;-70.400;2023-05-28T03:12:54;24.40;45.70
44982;DHT22;30716;41.740;-70.400;2023-05-28T03:15:20;24.40;45.60
44982;DHT22;30716;41.740;-70.400;2023-05-28T03:17:46;24.40;45.70
44982;DHT22;30716;41.740;-70.400;2023-05-28T03:20:13;24.40;45.70
44982;DHT22;30716;41.740;-70.400;2023-05-28T03:22:39;24.40;45.60
44982;DHT22;30716;41.740;-70.400;2023-05-28T03:25:07;24.40;45.50
44982;DHT22;30716;41.740;-70.400;2023-05-28T03:27:34;24.40;45.60
44982;DHT22;30716;41.740;-70.400;2023-05-28T03:30:00;24.40;45.50
44982;DHT22;30716;41.740;-70.400;2023-05-28T03:32:29;24.40;45.50
44982;DHT22;30716;41.740;-70.400;2023-05-28T03:34:55;24.50;45.60
44982;DHT22;30716;41.740;-70.400;2023-05-28T03:37:22;24.40;45.50
44982;DHT22;30716;41.740;-70.400;2023-05-28T03:39:48;24.50;45.50
44982;DHT22;30716;41.740;-70.400;2023-05-28T03:42:14;24.40;45.50
44982;DHT22;30716;41.740;-70.400;2023-05-28T03:44:41;24.40;45.50
44982;DHT22;30716;41.740;-70.400;2023-05-28T03:47:07;24.40;45.40
44982;DHT22;30716;41.740;-70.400;2023-05-28T03:49:34;24.40;45.50
44982;DHT22;30716;41.740;-70.400;2023-05-28T03:52:01;24.40;45.70
44982;DHT22;30716;41.740;-70.400;2023-05-28T03:54:27;24.40;45.60
44982;DHT22;30716;41.740;-70.400;2023-05-28T03:56:53;24.40;45.50
44982;DHT22;30716;41.740;-70.400;2023-05-28T03:59:19;24.40;45.50
44982;DHT22;30716;41.740;-70.400;2023-05-28T04:01:46;24.40;45.50
44982;DHT22;30716;41.740;-70.400;2023-05-28T04:04:13;24.40;45.50
44982;DHT22;30716;41.740;-70.400;2023-05-28T04:06:39;24.40;45.50
44982;DHT22;30716;41.740;-70.400;2023-05-28T04:09:05;24.40;45.50
44982;DHT22;30716;41.740;-70.400;2023-05-28T04:11:32;24.40;45.50
44982;DHT22;30716;41.740;-70.400;2023-05-28T04:14:01;24.40;45.70
44982;DHT22;30716;41.740;-70.400;2023-05-28T04:16:27;24.40;45.80
44982;DHT22;30716;41.740;-70.400;2023-05-28T04:18:53;24.40;45.70
44982;DHT22;30716;41.740;-70.400;2023-05-28T04:21:23;24.40;45.70
44982;DHT22;30716;41.740;-70.400;2023-05-28T04:23:50;24.40;45.70
44982;DHT22;30716;41.740;-70.400;2023-05-28T04:26:17;24.40;45.90
44982;DHT22;30716;41.740;-70.400;2023-05-28T04:28:46;24.40;45.80
44982;DHT22;30716;41.740;-70.400;2023-05-28T04:31:14;24.40;45.70
44982;DHT22;30716;41.740;-70.400;2023-05-28T04:33:40;24.40;45.70
44982;DHT22;30716;41.740;-70.400;2023-05-28T04:36:07;24.40;45.70
44982;DHT22;30716;41.740;-70.400;2023-05-28T04:38:34;24.40;45.90
44982;DHT22;30716;41.740;-70.400;2023-05-28T04:41:00;24.40;45.50
44982;DHT22;30716;41.740;-70.400;2023-05-28T04:43:29;24.40;45.80
44982;DHT22;30716;41.740;-70.400;2023-05-28T04:45:55;24.40;45.80
44982;DHT22;30716;41.740;-70.400;2023-05-28T04:48:27;24.40;45.80
44982;DHT22;30716;41.740;-70.400;2023-05-28T04:50:53;24.40;46.00
44982;DHT22;30716;41.740;-70.400;2023-05-28T04:53:21;24.40;45.80
44982;DHT22;30716;41.740;-70.400;2023-05-28T04:55:47;24.40;45.90
44982;DHT22;30716;41.740;-70.400;2023-05-28T04:58:13;24.40;46.10
44982;DHT22;30716;41.740;-70.400;2023-05-28T05:00:39;24.40;46.10
44982;DHT22;30716;41.740;-70.400;2023-05-28T05:03:05;24.40;46.00
44982;DHT22;30716;41.740;-70.400;2023-05-28T05:05:32;24.40;46.00
44982;DHT22;30716;41.740;-70.400;2023-05-28T05:07:58;24.40;46.20
44982;DHT22;30716;41.740;-70.400;2023-05-28T05:10:24;24.40;46.20
44982;DHT22;30716;41.740;-70.400;2023-05-28T05:12:52;24.40;46.00
44982;DHT22;30716;41.740;-70.400;2023-05-28T05:15:18;24.40;45.90
44982;DHT22;30716;41.740;-70.400;2023-05-28T05:17:46;24.40;45.80
44982;DHT22;30716;41.740;-70.400;2023-05-28T05:20:12;24.40;45.70
44982;DHT22;30716;41.740;-70.400;2023-05-28T05:22:40;24.40;45.70
44982;DHT22;30716;41.740;-70.400;2023-05-28T05:25:06;24.40;46.00
44982;DHT22;30716;41.740;-70.400;2023-05-28T05:27:35;24.40;45.80
44982;DHT22;30716;41.740;-70.400;2023-05-28T05:30:02;24.40;45.80
44982;DHT22;30716;41.740;-70.400;2023-05-28T05:32:28;24.40;45.90
44982;DHT22;30716;41.740;-70.400;2023-05-28T05:34:55;24.40;45.80
44982;DHT22;30716;41.740;-70.400;2023-05-28T05:37:21;24.40;45.90
44982;DHT22;30716;41.740;-70.400;2023-05-28T05:39:48;24.40;45.80
44982;DHT22;30716;41.740;-70.400;2023-05-28T05:42:15;24.40;46.00
44982;DHT22;30716;41.740;-70.400;2023-05-28T05:44:41;24.40;45.70
44982;DHT22;30716;41.740;-70.400;2023-05-28T05:47:07;24.40;45.80
44982;DHT22;30716;41.740;-70.400;2023-05-28T05:49:34;24.40;45.70
44982;DHT22;30716;41.740;-70.400;2023-05-28T05:52:01;24.40;45.90
44982;DHT22;30716;41.740;-70.400;2023-05-28T05:54:27;24.40;45.90
44982;DHT22;30716;41.740;-70.400;2023-05-28T05:56:54;24.40;45.80
44982;DHT22;30716;41.740;-70.400;2023-05-28T05:59:22;24.40;45.80
44982;DHT22;30716;41.740;-70.400;2023-05-28T06:01:48;24.40;45.80
44982;DHT22;30716;41.740;-70.400;2023-05-28T06:04:15;24.40;45.80
44982;DHT22;30716;41.740;-70.400;2023-05-28T06:06:41;24.40;45.80
44982;DHT22;30716;41.740;-70.400;2023-05-28T06:09:07;24.40;45.90
44982;DHT22;30716;41.740;-70.400;2023-05-28T06:11:34;24.40;45.70
44982;DHT22;30716;41.740;-70.400;2023-05-28T06:14:00;24.40;45.90
44982;DHT22;30716;41.740;-70.400;2023-05-28T06:16:26;24.40;45.70
44982;DHT22;30716;41.740;-70.400;2023-05-28T06:18:55;24.40;45.90
44982;DHT22;30716;41.740;-70.400;2023-05-28T06:21:21;24.40;45.90
44982;DHT22;30716;41.740;-70.400;2023-05-28T06:23:48;24.40;45.90
44982;DHT22;30716;41.740;-70.400;2023-05-28T06:26:14;24.40;45.80
44982;DHT22;30716;41.740;-70.400;2023-05-28T06:28:40;24.40;45.90
44982;DHT22;30716;41.740;-70.400;2023-05-28T06:31:06;24.40;45.70
44982;DHT22;30716;41.740;-70.400;2023-05-28T06:33:32;24.40;45.90
44982;DHT22;30716;41.740;-70.400;2023-05-28T06:35:59;24.40;46.70
44982;DHT22;30716;41.740;-70.400;2023-05-28T06:38:25;24.40;45.90
44982;DHT22;30716;41.740;-70.400;2023-05-28T06:40:51;24.40;46.00
44982;DHT22;30716;41.740;-70.400;2023-05-28T06:43:18;24.40;46.00
44982;DHT22;30716;41.740;-70.400;2023-05-28T06:45:44;24.40;45.90
44982;DHT22;30716;41.740;-70.400;2023-05-28T06:48:10;24.40;45.70
44982;DHT22;30716;41.740;-70.400;2023-05-28T06:50:36;24.40;45.90
44982;DHT22;30716;41.740;-70.400;2023-05-28T06:53:03;24.40;45.90
44982;DHT22;30716;41.740;-70.400;2023-05-28T06:55:29;24.40;46.00
44982;DHT22;30716;41.740;-70.400;2023-05-28T06:57:55;24.40;45.90
44982;DHT22;30716;41.740;-70.400;2023-05-28T07:00:21;24.40;46.00
44982;DHT22;30716;41.740;-70.400;2023-05-28T07:02:48;24.40;46.00
44982;DHT22;30716;41.740;-70.400;2023-05-28T07:05:15;24.30;45.90
44982;DHT22;30716;41.740;-70.400;2023-05-28T07:07:41;24.40;46.80
44982;DHT22;30716;41.740;-70.400;2023-05-28T07:10:07;24.30;45.90
44982;DHT22;30716;41.740;-70.400;2023-05-28T07:12:34;24.30;46.20
44982;DHT22;30716;41.740;-70.400;2023-05-28T07:15:02;24.30;46.10
44982;DHT22;30716;41.740;-70.400;2023-05-28T07:17:28;24.30;46.20
44982;DHT22;30716;41.740;-70.400;2023-05-28T07:19:55;24.30;46.00
44982;DHT22;30716;41.740;-70.400;2023-05-28T07:22:21;24.40;45.90
44982;DHT22;30716;41.740;-70.400;2023-05-28T07:24:47;24.30;46.00
44982;DHT22;30716;41.740;-70.400;2023-05-28T07:27:13;24.40;46.00
44982;DHT22;30716;41.740;-70.400;2023-05-28T07:29:39;24.40;45.70
44982;DHT22;30716;41.740;-70.400;2023-05-28T07:32:06;24.40;45.90
44982;DHT22;30716;41.740;-70.400;2023-05-28T07:34:32;24.40;45.70
44982;DHT22;30716;41.740;-70.400;2023-05-28T07:36:59;24.40;45.80
44982;DHT22;30716;41.740;-70.400;2023-05-28T07:39:26;24.40;45.90
44982;DHT22;30716;41.740;-70.400;2023-05-28T07:41:52;24.30;45.80
44982;DHT22;30716;41.740;-70.400;2023-05-28T07:44:18;24.30;46.10
44982;DHT22;30716;41.740;-70.400;2023-05-28T07:46:45;24.30;46.00
44982;DHT22;30716;41.740;-70.400;2023-05-28T07:49:11;24.30;46.20
44982;DHT22;30716;41.740;-70.400;2023-05-28T07:51:38;24.30;46.10
44982;DHT22;30716;41.740;-70.400;2023-05-28T07:54:04;24.30;45.90
44982;DHT22;30716;41.740;-70.400;2023-05-28T07:56:30;24.30;46.10
44982;DHT22;30716;41.740;-70.400;2023-05-28T07:58:56;24.30;45.90
44982;DHT22;30716;41.740;-70.400;2023-05-28T08:01:22;24.30;45.80
44982;DHT22;30716;41.740;-70.400;2023-05-28T08:03:50;24.40;45.90
44982;DHT22;30716;41.740;-70.400;2023-05-28T08:06:20;24.40;45.70
44982;DHT22;30716;41.740;-70.400;2023-05-28T08:08:46;24.30;45.80
44982;DHT22;30716;41.740;-70.400;2023-05-28T08:11:13;24.30;46.00
44982;DHT22;30716;41.740;-70.400;2023-05-28T08:13:41;24.30;46.00
44982;DHT22;30716;41.740;-70.400;2023-05-28T08:16:09;24.30;46.10
44982;DHT22;30716;41.740;-70.400;2023-05-28T08:18:36;24.30;45.80
44982;DHT22;30716;41.740;-70.400;2023-05-28T08:21:02;24.30;46.00
44982;DHT22;30716;41.740;-70.400;2023-05-28T08:23:28;24.30;45.90
44982;DHT22;30716;41.740;-70.400;2023-05-28T08:25:56;24.30;45.80
44982;DHT22;30716;41.740;-70.400;2023-05-28T08:28:23;24.30;45.70
44982;DHT22;30716;41.740;-70.400;2023-05-28T08:30:50;24.30;45.90
44982;DHT22;30716;41.740;-70.400;2023-05-28T08:33:16;24.30;45.80
44982;DHT22;30716;41.740;-70.400;2023-05-28T08:35:42;24.30;46.00
44982;DHT22;30716;41.740;-70.400;2023-05-28T08:38:08;24.40;45.80
44982;DHT22;30716;41.740;-70.400;2023-05-28T08:40:44;24.30;45.80
44982;DHT22;30716;41.740;-70.400;2023-05-28T08:43:14;24.30;45.70
44982;DHT22;30716;41.740;-70.400;2023-05-28T08:45:40;24.30;45.80
44982;DHT22;30716;41.740;-70.400;2023-05-28T08:48:09;24.30;45.90
44982;DHT22;30716;41.740;-70.400;2023-05-28T08:50:38;24.30;46.00
44982;DHT22;30716;41.740;-70.400;2023-05-28T08:53:06;24.20;46.00
44982;DHT22;30716;41.740;-70.400;2023-05-28T08:55:34;24.30;46.00
44982;DHT22;30716;41.740;-70.400;2023-05-28T08:58:02;24.30;46.10
44982;DHT22;30716;41.740;-70.400;2023-05-28T09:00:29;24.30;46.00
44982;DHT22;30716;41.740;-70.400;2023-05-28T09:02:56;24.30;45.90
44982;DHT22;30716;41.740;-70.400;2023-05-28T09:05:22;24.30;45.90
44982;DHT22;30716;41.740;-70.400;2023-05-28T09:07:48;24.30;46.10
44982;DHT22;30716;41.740;-70.400;2023-05-28T09:10:14;24.30;46.20
44982;DHT22;30716;41.740;-70.400;2023-05-28T09:12:57;24.30;45.90
44982;DHT22;30716;41.740;-70.400;2023-05-28T09:15:23;24.20;45.70
44982;DHT22;30716;41.740;-70.400;2023-05-28T09:17:50;24.30;45.90
44982;DHT22;30716;41.740;-70.400;2023-05-28T09:20:16;24.30;45.90
44982;DHT22;30716;41.740;-70.400;2023-05-28T09:22:43;24.30;46.00
44982;DHT22;30716;41.740;-70.400;2023-05-28T09:25:10;24.30;45.90
44982;DHT22;30716;41.740;-70.400;2023-05-28T09:27:36;24.30;46.20
44982;DHT22;30716;41.740;-70.400;2023-05-28T09:30:12;24.20;46.30
44982;DHT22;30716;41.740;-70.400;2023-05-28T09:32:38;24.20;46.10
44982;DHT22;30716;41.740;-70.400;2023-05-28T09:35:06;24.20;46.00
44982;DHT22;30716;41.740;-70.400;2023-05-28T09:37:34;24.20;45.70
44982;DHT22;30716;41.740;-70.400;2023-05-28T09:40:06;24.20;45.90
44982;DHT22;30716;41.740;-70.400;2023-05-28T09:42:40;24.20;45.90
44982;DHT22;30716;41.740;-70.400;2023-05-28T09:45:10;24.20;45.80
44982;DHT22;30716;41.740;-70.400;2023-05-28T09:47:44;24.20;45.90
44982;DHT22;30716;41.740;-70.400;2023-05-28T09:50:11;24.20;45.90
44982;DHT22;30716;41.740;-70.400;2023-05-28T09:52:38;24.20;45.90
44982;DHT22;30716;41.740;-70.400;2023-05-28T09:55:07;24.20;45.70
44982;DHT22;30716;41.740;-70.400;2023-05-28T09:57:42;24.30;45.70
44982;DHT22;30716;41.740;-70.400;2023-05-28T10:00:10;24.30;45.60
44982;DHT22;30716;41.740;-70.400;2023-05-28T10:05:25;24.20;45.80
44982;DHT22;30716;41.740;-70.400;2023-05-28T10:07:53;24.10;46.50
44982;DHT22;30716;41.740;-70.400;2023-05-28T10:10:21;24.10;46.00
44982;DHT22;30716;41.740;-70.400;2023-05-28T10:12:51;24.00;46.00
44982;DHT22;30716;41.740;-70.400;2023-05-28T10:15:19;24.00;46.40
44982;DHT22;30716;41.740;-70.400;2023-05-28T10:17:46;24.00;46.40
44982;DHT22;30716;41.740;-70.400;2023-05-28T10:20:13;24.00;46.50
44982;DHT22;30716;41.740;-70.400;2023-05-28T10:22:40;24.00;46.40
44982;DHT22;30716;41.740;-70.400;2023-05-28T10:25:08;24.00;46.40
44982;DHT22;30716;41.740;-70.400;2023-05-28T10:27:42;24.10;45.90
44982;DHT22;30716;41.740;-70.400;2023-05-28T10:30:10;24.10;46.00
44982;DHT22;30716;41.740;-70.400;2023-05-28T10:32:39;24.10;46.20
44982;DHT22;30716;41.740;-70.400;2023-05-28T10:35:10;24.10;45.90
44982;DHT22;30716;41.740;-70.400;2023-05-28T10:37:37;24.10;46.00
44982;DHT22;30716;41.740;-70.400;2023-05-28T10:40:09;24.10;45.80
44982;DHT22;30716;41.740;-70.400;2023-05-28T10:42:39;24.10;45.70
44982;DHT22;30716;41.740;-70.400;2023-05-28T10:45:10;24.20;45.80
44982;DHT22;30716;41.740;-70.400;2023-05-28T10:47:39;24.20;45.60
44982;DHT22;30716;41.740;-70.400;2023-05-28T10:50:18;24.20;45.70
44982;DHT22;30716;41.740;-70.400;2023-05-28T10:53:05;24.20;45.60
44982;DHT22;30716;41.740;-70.400;2023-05-28T10:55:54;24.20;45.50
44982;DHT22;30716;41.740;-70.400;2023-05-28T10:58:36;24.20;45.40
44982;DHT22;30716;41.740;-70.400;2023-05-28T11:03:43;24.20;45.30
44982;DHT22;30716;41.740;-70.400;2023-05-28T11:06:10;24.10;45.40
44982;DHT22;30716;41.740;-70.400;2023-05-28T11:08:40;24.10;45.50
44982;DHT22;30716;41.740;-70.400;2023-05-28T11:11:06;24.10;45.70
44982;DHT22;30716;41.740;-70.400;2023-05-28T11:13:34;24.00;45.80
44982;DHT22;30716;41.740;-70.400;2023-05-28T11:16:10;24.00;45.90
44982;DHT22;30716;41.740;-70.400;2023-05-28T11:18:37;24.00;45.60
44982;DHT22;30716;41.740;-70.400;2023-05-28T11:21:07;24.00;45.80
44982;DHT22;30716;41.740;-70.400;2023-05-28T11:23:36;24.00;46.20
44982;DHT22;30716;41.740;-70.400;2023-05-28T11:26:03;24.00;46.20
44982;DHT22;30716;41.740;-70.400;2023-05-28T11:28:31;24.00;46.00
44982;DHT22;30716;41.740;-70.400;2023-05-28T11:30:59;24.00;46.30
44982;DHT22;30716;41.740;-70.400;2023-05-28T11:33:28;24.00;46.00
44982;DHT22;30716;41.740;-70.400;2023-05-28T11:35:59;24.10;46.10
44982;DHT22;30716;41.740;-70.400;2023-05-28T11:38:28;24.10;45.90
44982;DHT22;30716;41.740;-70.400;2023-05-28T11:40:59;24.10;45.90
44982;DHT22;30716;41.740;-70.400;2023-05-28T11:43:25;24.10;45.90
44982;DHT22;30716;41.740;-70.400;2023-05-28T11:45:59;24.10;45.60
44982;DHT22;30716;41.740;-70.400;2023-05-28T11:48:26;24.10;45.70
44982;DHT22;30716;41.740;-70.400;2023-05-28T11:50:58;24.10;45.70
44982;DHT22;30716;41.740;-70.400;2023-05-28T11:53:38;24.10;45.80
44982;DHT22;30716;41.740;-70.400;2023-05-28T11:56:05;24.10;45.70
44982;DHT22;30716;41.740;-70.400;2023-05-28T11:58:31;24.10;45.80
44982;DHT22;30716;41.740;-70.400;2023-05-28T12:00:59;24.10;45.70
44982;DHT22;30716;41.740;-70.400;2023-05-28T12:03:26;24.10;45.70
44982;DHT22;30716;41.740;-70.400;2023-05-28T12:05:53;24.20;45.60
44982;DHT22;30716;41.740;-70.400;2023-05-28T12:08:19;24.10;45.70
44982;DHT22;30716;41.740;-70.400;2023-05-28T12:10:47;24.10;45.70
44982;DHT22;30716;41.740;-70.400;2023-05-28T12:13:13;24.20;45.70
44982;DHT22;30716;41.740;-70.400;2023-05-28T12:15:40;24.10;45.40
44982;DHT22;30716;41.740;-70.400;2023-05-28T12:18:06;24.20;45.50
44982;DHT22;30716;41.740;-70.400;2023-05-28T12:20:39;24.20;45.40
44982;DHT22;30716;41.740;-70.400;2023-05-28T12:23:06;24.20;45.30
44982;DHT22;30716;41.740;-70.400;2023-05-28T12:28:14;24.20;45.30
44982;DHT22;30716;41.740;-70.400;2023-05-28T12:30:42;24.20;45.50
44982;DHT22;30716;41.740;-70.400;2023-05-28T12:33:12;24.20;45.30
44982;DHT22;30716;41.740;-70.400;2023-05-28T12:35:38;24.20;45.30
44982;DHT22;30716;41.740;-70.400;2023-05-28T12:38:05;24.20;45.40
44982;DHT22;30716;41.740;-70.400;2023-05-28T12:40:31;24.20;45.20
44982;DHT22;30716;41.740;-70.400;2023-05-28T12:42:58;24.20;45.10
44982;DHT22;30716;41.740;-70.400;2023-05-28T12:45:26;24.20;45.20
44982;DHT22;30716;41.740;-70.400;2023-05-28T12:47:53;24.10;45.20
44982;DHT22;30716;41.740;-70.400;2023-05-28T12:50:20;24.10;45.30
44982;DHT22;30716;41.740;-70.400;2023-05-28T12:52:49;24.10;45.50
44982;DHT22;30716;41.740;-70.400;2023-05-28T12:55:16;24.10;45.30
44982;DHT22;30716;41.740;-70.400;2023-05-28T12:57:42;24.00;45.40
44982;DHT22;30716;41.740;-70.400;2023-05-28T13:00:09;24.00;45.40
44982;DHT22;30716;41.740;-70.400;2023-05-28T13:02:39;24.00;45.50
44982;DHT22;30716;41.740;-70.400;2023-05-28T13:05:06;24.00;45.50
44982;DHT22;30716;41.740;-70.400;2023-05-28T13:07:33;24.00;45.60
44982;DHT22;30716;41.740;-70.400;2023-05-28T13:09:59;24.00;45.70
44982;DHT22;30716;41.740;-70.400;2023-05-28T13:12:25;24.00;45.60
44982;DHT22;30716;41.740;-70.400;2023-05-28T13:14:52;24.10;46.10
44982;DHT22;30716;41.740;-70.400;2023-05-28T13:17:18;24.00;46.30
44982;DHT22;30716;41.740;-70.400;2023-05-28T13:19:46;24.00;45.70
44982;DHT22;30716;41.740;-70.400;2023-05-28T13:22:13;24.10;45.60
44982;DHT22;30716;41.740;-70.400;2023-05-28T13:24:39;24.10;45.80
44982;DHT22;30716;41.740;-70.400;2023-05-28T13:27:06;24.10;45.60
44982;DHT22;30716;41.740;-70.400;2023-05-28T13:29:32;24.10;45.60
44982;DHT22;30716;41.740;-70.400;2023-05-28T13:31:58;24.10;45.50
44982;DHT22;30716;41.740;-70.400;2023-05-28T13:34:27;24.10;45.30
44982;DHT22;30716;41.740;-70.400;2023-05-28T13:36:54;24.10;45.40
44982;DHT22;30716;41.740;-70.400;2023-05-28T13:39:20;24.10;45.50
44982;DHT22;30716;41.740;-70.400;2023-05-28T13:41:48;24.10;45.60
44982;DHT22;30716;41.740;-70.400;2023-05-28T13:44:18;24.10;45.60
44982;DHT22;30716;41.740;-70.400;2023-05-28T13:46:44;24.10;45.40
44982;DHT22;30716;41.740;-70.400;2023-05-28T13:49:10;24.10;45.10
44982;DHT22;30716;41.740;-70.400;2023-05-28T13:51:37;24.00;45.00
44982;DHT22;30716;41.740;-70.400;2023-05-28T13:54:08;24.10;45.20
44982;DHT22;30716;41.740;-70.400;2023-05-28T13:56:35;24.10;45.20
44982;DHT22;30716;41.740;-70.400;2023-05-28T13:59:01;24.10;45.40
44982;DHT22;30716;41.740;-70.400;2023-05-28T14:01:28;24.10;45.40
44982;DHT22;30716;41.740;-70.400;2023-05-28T14:03:54;24.10;45.30
44982;DHT22;30716;41.740;-70.400;2023-05-28T14:06:21;24.10;45.30
44982;DHT22;30716;41.740;-70.400;2023-05-28T14:08:47;24.10;45.40
44982;DHT22;30716;41.740;-70.400;2023-05-28T14:11:13;24.10;45.20
44982;DHT22;30716;41.740;-70.400;2023-05-28T14:13:41;24.10;45.10
44982;DHT22;30716;41.740;-70.400;2023-05-28T14:16:09;24.10;45.20
44982;DHT22;30716;41.740;-70.400;2023-05-28T14:18:35;24.10;45.40
44982;DHT22;30716;41.740;-70.400;2023-05-28T14:21:02;24.00;45.50
44982;DHT22;30716;41.740;-70.400;2023-05-28T14:23:29;24.00;45.60
44982;DHT22;30716;41.740;-70.400;2023-05-28T14:25:55;24.00;45.30
44982;DHT22;30716;41.740;-70.400;2023-05-28T14:28:21;24.00;45.30
44982;DHT22;30716;41.740;-70.400;2023-05-28T14:30:47;24.00;45.50
44982;DHT22;30716;41.740;-70.400;2023-05-28T14:33:14;24.00;45.30
44982;DHT22;30716;41.740;-70.400;2023-05-28T14:35:40;24.00;45.70
44982;DHT22;30716;41.740;-70.400;2023-05-28T14:38:06;24.00;45.60
44982;DHT22;30716;41.740;-70.400;2023-05-28T14:40:32;24.00;45.70
44982;DHT22;30716;41.740;-70.400;2023-05-28T14:42:59;24.00;45.90
44982;DHT22;30716;41.740;-70.400;2023-05-28T14:45:26;24.00;45.50
44982;DHT22;30716;41.740;-70.400;2023-05-28T14:47:52;24.00;45.60
44982;DHT22;30716;41.740;-70.400;2023-05-28T14:50:18;24.00;45.50
44982;DHT22;30716;41.740;-70.400;2023-05-28T14:52:45;24.10;45.90
44982;DHT22;30716;41.740;-70.400;2023-05-28T14:55:11;24.10;45.90
44982;DHT22;30716;41.740;-70.400;2023-05-28T14:57:38;24.10;45.70
44982;DHT22;30716;41.740;-70.400;2023-05-28T15:00:07;24.10;45.50
44982;DHT22;30716;41.740;-70.400;2023-05-28T15:02:36;24.10;45.80
44982;DHT22;30716;41.740;-70.400;2023-05-28T15:05:03;24.10;46.20
44982;DHT22;30716;41.740;-70.400;2023-05-28T15:07:30;24.00;46.00
44982;DHT22;30716;41.740;-70.400;2023-05-28T15:09:57;24.00;46.60
44982;DHT22;30716;41.740;-70.400;2023-05-28T15:12:24;24.00;46.00